sensor_id;sensor_type;location;lat;lon;timestamp;pressure;altitude;pressure_sealevel;temperature;humidity
7748;BME280;3918;42.564;23.164;2023-04-08T04:01:25;-11650.84;;;-142.29;91.50
7748;BME280;3918;42.564;23.164;2023-04-08T04:03:52;-11650.84;;;-142.29;91.34
7748;BME280;3918;42.564;23.164;2023-04-08T04:06:18;-11650.84;;;-142.29;92.70
7748;BME280;3918;42.564;23.164;2023-04-08T04:08:45;-11650.84;;;-142.29;93.79
7748;BME280;3918;42.564;23.164;2023-04-08T04:11:12;-11650.84;;;-142.29;94.60
7748;BME280;3918;42.564;23.164;2023-04-08T04:13:39;-11650.84;;;-142.29;96.13
7748;BME280;3918;42.564;23.164;2023-04-08T04:16:05;-11650.84;;;-142.29;100.00
7748;BME280;3918;42.564;23.164;2023-04-08T04:18:34;-11650.84;;;-142.29;100.00
7748;BME280;3918;42.564;23.164;2023-04-08T04:21:04;-11650.84;;;-142.29;100.00
7748;BME280;3918;42.564;23.164;2023-04-08T04:23:31;-11650.84;;;-142.29;100.00
7748;BME280;3918;42.564;23.164;2023-04-08T04:25:58;-11650.84;;;-142.29;98.85
7748;BME280;3918;42.564;23.164;2023-04-08T04:28:25;-11650.84;;;-142.29;98.75
7748;BME280;3918;42.564;23.164;2023-04-08T04:30:52;-11650.84;;;-142.29;98.04
7748;BME280;3918;42.564;23.164;2023-04-08T04:33:19;-11650.84;;;-142.29;96.55
7748;BME280;3918;42.564;23.164;2023-04-08T04:35:47;-11650.84;;;-142.29;97.20
7748;BME280;3918;42.564;23.164;2023-04-08T04:38:14;-11650.84;;;-142.29;96.06
7748;BME280;3918;42.564;23.164;2023-04-08T04:40:41;-11650.84;;;-142.29;95.28
7748;BME280;3918;42.564;23.164;2023-04-08T04:43:08;-11650.84;;;-142.29;96.57
7748;BME280;3918;42.564;23.164;2023-04-08T04:45:35;-11650.84;;;-142.29;94.11
7748;BME280;3918;42.564;23.164;2023-04-08T04:48:02;-11650.84;;;-142.29;89.00
7748;BME280;3918;42.564;23.164;2023-04-08T04:50:29;-11650.84;;;-142.29;87.96
7748;BME280;3918;42.564;23.164;2023-04-08T04:52:57;-11650.84;;;-142.29;86.54
7748;BME280;3918;42.564;23.164;2023-04-08T04:55:24;-11650.84;;;-142.29;85.37
7748;BME280;3918;42.564;23.164;2023-04-08T04:57:51;-11650.84;;;-142.29;85.96
7748;BME280;3918;42.564;23.164;2023-04-08T05:00:17;-11650.84;;;-142.29;87.77
7748;BME280;3918;42.564;23.164;2023-04-08T05:02:45;-11650.84;;;-142.29;87.86
7748;BME280;3918;42.564;23.164;2023-04-08T05:05:11;-11650.84;;;-142.29;87.79
7748;BME280;3918;42.564;23.164;2023-04-08T05:07:38;-11650.84;;;-142.29;87.28
7748;BME280;3918;42.564;23.164;2023-04-08T05:10:07;-11650.84;;;-142.29;86.82
7748;BME280;3918;42.564;23.164;2023-04-08T05:12:35;-11650.84;;;-142.29;87.01
7748;BME280;3918;42.564;23.164;2023-04-08T05:15:03;-11650.84;;;-142.29;87.63
7748;BME280;3918;42.564;23.164;2023-04-08T05:17:30;-11650.84;;;-142.29;85.91
7748;BME280;3918;42.564;23.164;2023-04-08T05:19:57;-11650.84;;;-142.29;83.95
7748;BME280;3918;42.564;23.164;2023-04-08T05:22:25;-11650.84;;;-142.29;81.56
7748;BME280;3918;42.564;23.164;2023-04-08T05:24:51;-11650.84;;;-142.29;78.40
7748;BME280;3918;42.564;23.164;2023-04-08T05:27:20;-11650.84;;;-142.29;77.42
7748;BME280;3918;42.564;23.164;2023-04-08T05:29:47;-11650.84;;;-142.29;75.00
7748;BME280;3918;42.564;23.164;2023-04-08T05:32:13;-11650.84;;;-142.29;75.12
7748;BME280;3918;42.564;23.164;2023-04-08T05:34:41;-11650.84;;;-142.29;75.27
7748;BME280;3918;42.564;23.164;2023-04-08T05:37:08;-11650.84;;;-142.29;72.72
7748;BME280;3918;42.564;23.164;2023-04-08T05:39:34;-11650.84;;;-142.29;71.70
7748;BME280;3918;42.564;23.164;2023-04-08T05:42:01;-11650.84;;;-142.29;70.63
7748;BME280;3918;42.564;23.164;2023-04-08T05:44:30;-11650.84;;;-142.29;70.77
7748;BME280;3918;42.564;23.164;2023-04-08T05:46:56;-11650.84;;;-142.29;74.11
7748;BME280;3918;42.564;23.164;2023-04-08T05:49:24;-11650.84;;;-142.29;78.13
7748;BME280;3918;42.564;23.164;2023-04-08T05:51:51;-11650.84;;;-142.29;79.76
7748;BME280;3918;42.564;23.164;2023-04-08T05:54:18;-11650.84;;;-142.29;78.85
7748;BME280;3918;42.564;23.164;2023-04-08T05:56:45;-11650.84;;;-142.29;76.65
7748;BME280;3918;42.564;23.164;2023-04-08T05:59:13;-11650.84;;;-142.29;72.72
7748;BME280;3918;42.564;23.164;2023-04-08T06:01:41;-11650.84;;;-142.29;71.34
7748;BME280;3918;42.564;23.164;2023-04-08T06:04:08;-11650.84;;;-142.29;66.90
7748;BME280;3918;42.564;23.164;2023-04-08T06:06:36;-11650.84;;;-142.29;66.36
7748;BME280;3918;42.564;23.164;2023-04-08T06:09:03;-11650.84;;;-142.29;62.23
7748;BME280;3918;42.564;23.164;2023-04-08T06:11:30;-11650.84;;;-142.29;57.87
7748;BME280;3918;42.564;23.164;2023-04-08T06:13:57;-11650.84;;;-142.29;54.80
7748;BME280;3918;42.564;23.164;2023-04-08T06:16:23;-11650.84;;;-142.29;53.73
7748;BME280;3918;42.564;23.164;2023-04-08T06:18:52;-11650.84;;;-142.29;51.61
7748;BME280;3918;42.564;23.164;2023-04-08T06:21:19;-11650.84;;;-142.29;51.09
7748;BME280;3918;42.564;23.164;2023-04-08T06:23:47;-11650.84;;;-142.29;51.02
7748;BME280;3918;42.564;23.164;2023-04-08T06:26:13;-11650.84;;;-142.29;51.16
7748;BME280;3918;42.564;23.164;2023-04-08T06:28:40;-11650.84;;;-142.29;51.76
7748;BME280;3918;42.564;23.164;2023-04-08T06:31:07;-11650.84;;;-142.29;51.71
7748;BME280;3918;42.564;23.164;2023-04-08T06:33:34;-11650.84;;;-142.29;51.86
7748;BME280;3918;42.564;23.164;2023-04-08T06:36:03;-11650.84;;;-142.29;52.06
7748;BME280;3918;42.564;23.164;2023-04-08T06:38:30;-11650.84;;;-142.29;52.70
7748;BME280;3918;42.564;23.164;2023-04-08T06:41:01;-11650.84;;;-142.29;52.45
7748;BME280;3918;42.564;23.164;2023-04-08T06:43:28;-11650.84;;;-142.29;52.33
7748;BME280;3918;42.564;23.164;2023-04-08T06:45:55;-11650.84;;;-142.29;52.79
7748;BME280;3918;42.564;23.164;2023-04-08T06:48:22;-11650.84;;;-142.29;51.65
7748;BME280;3918;42.564;23.164;2023-04-08T06:50:53;-11650.84;;;-142.29;52.15
7748;BME280;3918;42.564;23.164;2023-04-08T06:53:22;-11650.84;;;-142.29;48.96
7748;BME280;3918;42.564;23.164;2023-04-08T06:55:50;-11650.84;;;-142.29;46.68
7748;BME280;3918;42.564;23.164;2023-04-08T06:58:17;-11650.84;;;-142.29;46.03
7748;BME280;3918;42.564;23.164;2023-04-08T07:00:43;-11650.84;;;-142.29;45.27
7748;BME280;3918;42.564;23.164;2023-04-08T07:03:10;-11650.84;;;-142.29;44.24
7748;BME280;3918;42.564;23.164;2023-04-08T07:05:37;-11650.84;;;-142.29;44.32
7748;BME280;3918;42.564;23.164;2023-04-08T07:08:06;-11650.84;;;-142.29;44.99
7748;BME280;3918;42.564;23.164;2023-04-08T07:10:35;-11650.84;;;-142.29;44.83
7748;BME280;3918;42.564;23.164;2023-04-08T07:13:02;-11650.84;;;-142.29;44.07
7748;BME280;3918;42.564;23.164;2023-04-08T07:15:29;-11650.84;;;-142.29;44.64
7748;BME280;3918;42.564;23.164;2023-04-08T07:17:55;-11650.84;;;-142.29;44.29
7748;BME280;3918;42.564;23.164;2023-04-08T07:20:23;-11650.84;;;-142.29;43.85
7748;BME280;3918;42.564;23.164;2023-04-08T07:22:50;-11650.84;;;-142.29;45.16
7748;BME280;3918;42.564;23.164;2023-04-08T07:25:17;-11650.84;;;-142.29;45.52
7748;BME280;3918;42.564;23.164;2023-04-08T07:27:45;-11650.84;;;-142.29;45.33
7748;BME280;3918;42.564;23.164;2023-04-08T07:30:12;-11650.84;;;-142.29;46.71
7748;BME280;3918;42.564;23.164;2023-04-08T07:32:39;-11650.84;;;-142.29;47.22
7748;BME280;3918;42.564;23.164;2023-04-08T07:35:06;-11650.84;;;-142.29;46.57
7748;BME280;3918;42.564;23.164;2023-04-08T07:37:33;-11650.84;;;-142.29;48.01
7748;BME280;3918;42.564;23.164;2023-04-08T07:40:00;-11650.84;;;-142.29;47.09
7748;BME280;3918;42.564;23.164;2023-04-08T07:42:27;-11650.84;;;-142.29;47.09
7748;BME280;3918;42.564;23.164;2023-04-08T07:44:55;-11650.84;;;-142.29;45.65
7748;BME280;3918;42.564;23.164;2023-04-08T07:47:22;-11650.84;;;-142.29;45.03
7748;BME280;3918;42.564;23.164;2023-04-08T07:49:49;-11650.84;;;-142.29;43.70
7748;BME280;3918;42.564;23.164;2023-04-08T07:52:15;-11650.84;;;-142.29;43.48
7748;BME280;3918;42.564;23.164;2023-04-08T07:54:42;-11650.84;;;-142.29;42.37
7748;BME280;3918;42.564;23.164;2023-04-08T07:57:09;-11650.84;;;-142.29;42.10
7748;BME280;3918;42.564;23.164;2023-04-08T07:59:36;-11650.84;;;-142.29;42.15
7748;BME280;3918;42.564;23.164;2023-04-08T08:02:05;-11650.84;;;-142.29;44.16
7748;BME280;3918;42.564;23.164;2023-04-08T08:04:32;-11650.84;;;-142.29;43.70
7748;BME280;3918;42.564;23.164;2023-04-08T08:06:59;-11650.84;;;-142.29;43.78
7748;BME280;3918;42.564;23.164;2023-04-08T08:09:26;-11650.84;;;-142.29;43.24
7748;BME280;3918;42.564;23.164;2023-04-08T08:11:52;-11650.84;;;-142.29;43.43
7748;BME280;3918;42.564;23.164;2023-04-08T08:14:19;-11650.84;;;-142.29;43.86
7748;BME280;3918;42.564;23.164;2023-04-08T08:16:46;-11650.84;;;-142.29;44.00
7748;BME280;3918;42.564;23.164;2023-04-08T08:19:15;-11650.84;;;-142.29;43.74
7748;BME280;3918;42.564;23.164;2023-04-08T08:21:42;-11650.84;;;-142.29;44.07
7748;BME280;3918;42.564;23.164;2023-04-08T08:24:09;-11650.84;;;-142.29;45.25
7748;BME280;3918;42.564;23.164;2023-04-08T08:26:35;-11650.84;;;-142.29;45.24
7748;BME280;3918;42.564;23.164;2023-04-08T08:29:02;-11650.84;;;-142.29;45.24
7748;BME280;3918;42.564;23.164;2023-04-08T08:31:30;-11650.84;;;-142.29;44.95
7748;BME280;3918;42.564;23.164;2023-04-08T08:33:57;-11650.84;;;-142.29;46.73
7748;BME280;3918;42.564;23.164;2023-04-08T08:36:25;-11650.84;;;-142.29;46.11
7748;BME280;3918;42.564;23.164;2023-04-08T08:38:52;-11650.84;;;-142.29;45.38
7748;BME280;3918;42.564;23.164;2023-04-08T08:41:19;-11650.84;;;-142.29;45.30
7748;BME280;3918;42.564;23.164;2023-04-08T08:43:46;-11650.84;;;-142.29;44.75
7748;BME280;3918;42.564;23.164;2023-04-08T08:46:15;-11650.84;;;-142.29;43.88
7748;BME280;3918;42.564;23.164;2023-04-08T08:48:43;-11650.84;;;-142.29;42.35
7748;BME280;3918;42.564;23.164;2023-04-08T08:51:11;-11650.84;;;-142.29;41.51
7748;BME280;3918;42.564;23.164;2023-04-08T08:53:39;-11650.84;;;-142.29;41.59
7748;BME280;3918;42.564;23.164;2023-04-08T08:56:09;-11650.84;;;-142.29;41.22
7748;BME280;3918;42.564;23.164;2023-04-08T08:58:36;-11650.84;;;-142.29;40.27
7748;BME280;3918;42.564;23.164;2023-04-08T09:01:31;-11650.84;;;-142.29;38.83
7748;BME280;3918;42.564;23.164;2023-04-08T09:04:13;-11650.84;;;-142.29;40.43
7748;BME280;3918;42.564;23.164;2023-04-08T09:06:41;-11650.84;;;-142.29;39.23
7748;BME280;3918;42.564;23.164;2023-04-08T09:09:09;-11650.84;;;-142.29;38.09
7748;BME280;3918;42.564;23.164;2023-04-08T09:11:37;-11650.84;;;-142.29;38.32
7748;BME280;3918;42.564;23.164;2023-04-08T09:14:05;-11650.84;;;-142.29;37.60
7748;BME280;3918;42.564;23.164;2023-04-08T09:16:42;-11650.84;;;-142.29;38.44
7748;BME280;3918;42.564;23.164;2023-04-08T09:19:10;-11650.84;;;-142.29;39.04
7748;BME280;3918;42.564;23.164;2023-04-08T09:21:38;-11650.84;;;-142.29;39.95
7748;BME280;3918;42.564;23.164;2023-04-08T09:24:06;-11650.84;;;-142.29;40.75
7748;BME280;3918;42.564;23.164;2023-04-08T09:26:35;-11650.84;;;-142.29;39.57
7748;BME280;3918;42.564;23.164;2023-04-08T09:29:04;-11650.84;;;-142.29;38.58
7748;BME280;3918;42.564;23.164;2023-04-08T09:31:32;-11650.84;;;-142.29;37.43
7748;BME280;3918;42.564;23.164;2023-04-08T09:34:08;-11650.84;;;-142.29;37.55
7748;BME280;3918;42.564;23.164;2023-04-08T09:36:36;-11650.84;;;-142.29;36.23
7748;BME280;3918;42.564;23.164;2023-04-08T09:39:03;-11650.84;;;-142.29;35.81
7748;BME280;3918;42.564;23.164;2023-04-08T09:41:33;-11650.84;;;-142.29;37.09
7748;BME280;3918;42.564;23.164;2023-04-08T09:44:02;-11650.84;;;-142.29;37.98
7748;BME280;3918;42.564;23.164;2023-04-08T09:46:32;-11650.84;;;-142.29;38.03
7748;BME280;3918;42.564;23.164;2023-04-08T09:49:04;-11650.84;;;-142.29;39.50
7748;BME280;3918;42.564;23.164;2023-04-08T09:51:35;-11650.84;;;-142.29;39.62
7748;BME280;3918;42.564;23.164;2023-04-08T09:54:08;-11650.84;;;-142.29;37.20
7748;BME280;3918;42.564;23.164;2023-04-08T09:56:43;-11650.84;;;-142.29;39.35
7748;BME280;3918;42.564;23.164;2023-04-08T09:59:16;-11650.84;;;-142.29;38.28
7748;BME280;3918;42.564;23.164;2023-04-08T10:01:52;-11650.84;;;-142.29;38.07
7748;BME280;3918;42.564;23.164;2023-04-08T10:04:21;-11650.84;;;-142.29;38.43
7748;BME280;3918;42.564;23.164;2023-04-08T10:06:53;-11650.84;;;-142.29;38.73
7748;BME280;3918;42.564;23.164;2023-04-08T10:09:20;-11650.84;;;-142.29;39.53
7748;BME280;3918;42.564;23.164;2023-04-08T10:11:48;-11650.84;;;-142.29;39.09
7748;BME280;3918;42.564;23.164;2023-04-08T10:14:17;-11650.84;;;-142.29;40.52
7748;BME280;3918;42.564;23.164;2023-04-08T10:16:46;-11650.84;;;-142.29;39.67
7748;BME280;3918;42.564;23.164;2023-04-08T10:19:37;-11650.84;;;-142.29;39.02
7748;BME280;3918;42.564;23.164;2023-04-08T10:22:44;-11650.84;;;-142.29;38.81
7748;BME280;3918;42.564;23.164;2023-04-08T10:25:28;-11650.84;;;-142.29;39.61
7748;BME280;3918;42.564;23.164;2023-04-08T10:27:56;-11650.84;;;-142.29;39.63
7748;BME280;3918;42.564;23.164;2023-04-08T10:30:43;-11650.84;;;-142.29;38.33
7748;BME280;3918;42.564;23.164;2023-04-08T10:33:11;-11650.84;;;-142.29;40.18
7748;BME280;3918;42.564;23.164;2023-04-08T10:35:41;-11650.84;;;-142.29;39.62
7748;BME280;3918;42.564;23.164;2023-04-08T10:38:08;-11650.84;;;-142.29;38.89
7748;BME280;3918;42.564;23.164;2023-04-08T10:40:38;-11650.84;;;-142.29;39.33
7748;BME280;3918;42.564;23.164;2023-04-08T10:43:06;-11650.84;;;-142.29;39.22
7748;BME280;3918;42.564;23.164;2023-04-08T10:45:33;-11650.84;;;-142.29;39.66
7748;BME280;3918;42.564;23.164;2023-04-08T10:48:15;-11650.84;;;-142.29;39.42
7748;BME280;3918;42.564;23.164;2023-04-08T10:50:43;-11650.84;;;-142.29;39.06
7748;BME280;3918;42.564;23.164;2023-04-08T10:53:10;-11650.84;;;-142.29;39.38
7748;BME280;3918;42.564;23.164;2023-04-08T10:55:37;-11650.84;;;-142.29;39.61
7748;BME280;3918;42.564;23.164;2023-04-08T10:58:05;-11650.84;;;-142.29;39.92
7748;BME280;3918;42.564;23.164;2023-04-08T11:00:33;-11650.84;;;-142.29;40.14
7748;BME280;3918;42.564;23.164;2023-04-08T11:03:02;-11650.84;;;-142.29;39.49
7748;BME280;3918;42.564;23.164;2023-04-08T11:05:30;-11650.84;;;-142.29;40.02
7748;BME280;3918;42.564;23.164;2023-04-08T11:07:57;-11650.84;;;-142.29;39.13
7748;BME280;3918;42.564;23.164;2023-04-08T11:10:24;-11650.84;;;-142.29;39.70
7748;BME280;3918;42.564;23.164;2023-04-08T11:12:52;-11650.84;;;-142.29;39.82
7748;BME280;3918;42.564;23.164;2023-04-08T11:15:20;-11650.84;;;-142.29;40.11
7748;BME280;3918;42.564;23.164;2023-04-08T11:17:46;-11650.84;;;-142.29;40.20
7748;BME280;3918;42.564;23.164;2023-04-08T11:20:13;-11650.84;;;-142.29;41.79
7748;BME280;3918;42.564;23.164;2023-04-08T11:22:42;-11650.84;;;-142.29;41.07
7748;BME280;3918;42.564;23.164;2023-04-08T11:25:10;-11650.84;;;-142.29;40.43
7748;BME280;3918;42.564;23.164;2023-04-08T11:27:38;-11650.84;;;-142.29;40.69
7748;BME280;3918;42.564;23.164;2023-04-08T11:30:06;-11650.84;;;-142.29;39.76
7748;BME280;3918;42.564;23.164;2023-04-08T11:32:35;-11650.84;;;-142.29;39.53
7748;BME280;3918;42.564;23.164;2023-04-08T11:35:04;-11650.84;;;-142.29;40.93
7748;BME280;3918;42.564;23.164;2023-04-08T11:37:36;-11650.84;;;-142.29;38.14
7748;BME280;3918;42.564;23.164;2023-04-08T11:40:10;-11650.84;;;-142.29;39.25
7748;BME280;3918;42.564;23.164;2023-04-08T11:42:38;-11650.84;;;-142.29;40.73
7748;BME280;3918;42.564;23.164;2023-04-08T11:45:11;-11650.84;;;-142.29;39.37
7748;BME280;3918;42.564;23.164;2023-04-08T11:47:39;-11650.84;;;-142.29;40.09
7748;BME280;3918;42.564;23.164;2023-04-08T11:50:07;-11650.84;;;-142.29;39.31
7748;BME280;3918;42.564;23.164;2023-04-08T11:52:43;-11650.84;;;-142.29;39.39
7748;BME280;3918;42.564;23.164;2023-04-08T11:55:22;-11650.84;;;-142.29;39.31
7748;BME280;3918;42.564;23.164;2023-04-08T11:57:49;-11650.84;;;-142.29;39.61
7748;BME280;3918;42.564;23.164;2023-04-08T12:00:16;-11650.84;;;-142.29;39.49
7748;BME280;3918;42.564;23.164;2023-04-08T12:02:43;-11650.84;;;-142.29;40.42
7748;BME280;3918;42.564;23.164;2023-04-08T12:05:10;-11650.84;;;-142.29;41.43
7748;BME280;3918;42.564;23.164;2023-04-08T12:07:37;-11650.84;;;-142.29;42.20
7748;BME280;3918;42.564;23.164;2023-04-08T12:10:05;-11650.84;;;-142.29;41.78
7748;BME280;3918;42.564;23.164;2023-04-08T12:12:33;-11650.84;;;-142.29;43.10
7748;BME280;3918;42.564;23.164;2023-04-08T12:15:00;-11650.84;;;-142.29;43.97
7748;BME280;3918;42.564;23.164;2023-04-08T12:17:27;-11650.84;;;-142.29;43.64
7748;BME280;3918;42.564;23.164;2023-04-08T12:19:54;-11650.84;;;-142.29;43.58
7748;BME280;3918;42.564;23.164;2023-04-08T12:22:21;-11650.84;;;-142.29;43.05
7748;BME280;3918;42.564;23.164;2023-04-08T12:24:48;-11650.84;;;-142.29;43.77
7748;BME280;3918;42.564;23.164;2023-04-08T12:27:15;-11650.84;;;-142.29;41.88
7748;BME280;3918;42.564;23.164;2023-04-08T12:29:43;-11650.84;;;-142.29;41.02
7748;BME280;3918;42.564;23.164;2023-04-08T12:32:10;-11650.84;;;-142.29;40.75
7748;BME280;3918;42.564;23.164;2023-04-08T12:34:37;-11650.84;;;-142.29;40.75
7748;BME280;3918;42.564;23.164;2023-04-08T12:37:04;-11650.84;;;-142.29;41.29
7748;BME280;3918;42.564;23.164;2023-04-08T12:39:31;-11650.84;;;-142.29;42.66
7748;BME280;3918;42.564;23.164;2023-04-08T12:41:58;-11650.84;;;-142.29;43.03
7748;BME280;3918;42.564;23.164;2023-04-08T12:44:25;-11650.84;;;-142.29;44.35
7748;BME280;3918;42.564;23.164;2023-04-08T12:46:53;-11650.84;;;-142.29;44.89
7748;BME280;3918;42.564;23.164;2023-04-08T12:49:20;-11650.84;;;-142.29;44.09
7748;BME280;3918;42.564;23.164;2023-04-08T12:51:47;-11650.84;;;-142.29;43.24
7748;BME280;3918;42.564;23.164;2023-04-08T12:54:13;-11650.84;;;-142.29;42.88
7748;BME280;3918;42.564;23.164;2023-04-08T12:56:41;-11650.84;;;-142.29;43.35
7748;BME280;3918;42.564;23.164;2023-04-08T12:59:08;-11650.84;;;-142.29;43.88
7748;BME280;3918;42.564;23.164;2023-04-08T13:01:35;-11650.84;;;-142.29;41.77
7748;BME280;3918;42.564;23.164;2023-04-08T13:04:03;-11650.84;;;-142.29;41.73
7748;BME280;3918;42.564;23.164;2023-04-08T13:06:30;-11650.84;;;-142.29;42.64
7748;BME280;3918;42.564;23.164;2023-04-08T13:08:57;-11650.84;;;-142.29;42.13
7748;BME280;3918;42.564;23.164;2023-04-08T13:11:24;-11650.84;;;-142.29;43.62
7748;BME280;3918;42.564;23.164;2023-04-08T13:13:51;-11650.84;;;-142.29;43.00
7748;BME280;3918;42.564;23.164;2023-04-08T13:16:18;-11650.84;;;-142.29;41.95
7748;BME280;3918;42.564;23.164;2023-04-08T13:18:45;-11650.84;;;-142.29;42.42
7748;BME280;3918;42.564;23.164;2023-04-08T13:21:13;-11650.84;;;-142.29;41.74
7748;BME280;3918;42.564;23.164;2023-04-08T13:23:40;-11650.84;;;-142.29;41.21
7748;BME280;3918;42.564;23.164;2023-04-08T13:26:26;-11650.84;;;-142.29;41.95
7748;BME280;3918;42.564;23.164;2023-04-08T13:29:07;-11650.84;;;-142.29;39.97
7748;BME280;3918;42.564;23.164;2023-04-08T13:31:36;-11650.84;;;-142.29;40.29
7748;BME280;3918;42.564;23.164;2023-04-08T13:34:05;-11650.84;;;-142.29;41.53
7748;BME280;3918;42.564;23.164;2023-04-08T13:36:38;-11650.84;;;-142.29;40.31
7748;BME280;3918;42.564;23.164;2023-04-08T13:39:08;-11650.84;;;-142.29;40.47
7748;BME280;3918;42.564;23.164;2023-04-08T13:41:35;-11650.84;;;-142.29;40.23
7748;BME280;3918;42.564;23.164;2023-04-08T13:44:02;-11650.84;;;-142.29;39.66
7748;BME280;3918;42.564;23.164;2023-04-08T13:46:30;-11650.84;;;-142.29;40.11
7748;BME280;3918;42.564;23.164;2023-04-08T13:48:56;-11650.84;;;-142.29;41.78
7748;BME280;3918;42.564;23.164;2023-04-08T13:51:23;-11650.84;;;-142.29;43.33
7748;BME280;3918;42.564;23.164;2023-04-08T13:53:53;-11650.84;;;-142.29;44.25
7748;BME280;3918;42.564;23.164;2023-04-08T13:56:19;-11650.84;;;-142.29;45.88
7748;BME280;3918;42.564;23.164;2023-04-08T13:58:46;-11650.84;;;-142.29;46.98
7748;BME280;3918;42.564;23.164;2023-04-08T14:01:13;-11650.84;;;-142.29;49.26
7748;BME280;3918;42.564;23.164;2023-04-08T14:03:40;-11650.84;;;-142.29;48.60
7748;BME280;3918;42.564;23.164;2023-04-08T14:06:06;-11650.84;;;-142.29;49.28
7748;BME280;3918;42.564;23.164;2023-04-08T14:08:33;-11650.84;;;-142.29;50.00
7748;BME280;3918;42.564;23.164;2023-04-08T14:11:01;-11650.84;;;-142.29;49.81
7748;BME280;3918;42.564;23.164;2023-04-08T14:13:28;-11650.84;;;-142.29;49.51
7748;BME280;3918;42.564;23.164;2023-04-08T14:15:56;-11650.84;;;-142.29;50.97
7748;BME280;3918;42.564;23.164;2023-04-08T14:18:26;-11650.84;;;-142.29;49.92
7748;BME280;3918;42.564;23.164;2023-04-08T14:20:53;-11650.84;;;-142.29;51.39
7748;BME280;3918;42.564;23.164;2023-04-08T14:23:21;-11650.84;;;-142.29;54.42
7748;BME280;3918;42.564;23.164;2023-04-08T14:25:47;-11650.84;;;-142.29;53.25
7748;BME280;3918;42.564;23.164;2023-04-08T14:28:16;-11650.84;;;-142.29;53.73
7748;BME280;3918;42.564;23.164;2023-04-08T14:30:42;-11650.84;;;-142.29;54.94
7748;BME280;3918;42.564;23.164;2023-04-08T14:33:09;-11650.84;;;-142.29;55.92
7748;BME280;3918;42.564;23.164;2023-04-08T14:35:36;-11650.84;;;-142.29;57.40
7748;BME280;3918;42.564;23.164;2023-04-08T14:38:03;-11650.84;;;-142.29;63.84
7748;BME280;3918;42.564;23.164;2023-04-08T14:40:30;-11650.84;;;-142.29;64.69
7748;BME280;3918;42.564;23.164;2023-04-08T14:42:56;-11650.84;;;-142.29;70.38
7748;BME280;3918;42.564;23.164;2023-04-08T14:45:27;-11650.84;;;-142.29;69.53
7748;BME280;3918;42.564;23.164;2023-04-08T14:47:54;-11650.84;;;-142.29;68.17
7748;BME280;3918;42.564;23.164;2023-04-08T14:50:21;-11650.84;;;-142.29;78.24
7748;BME280;3918;42.564;23.164;2023-04-08T14:52:48;-11650.84;;;-142.29;79.25
7748;BME280;3918;42.564;23.164;2023-04-08T14:55:15;-11650.84;;;-142.29;86.34
7748;BME280;3918;42.564;23.164;2023-04-08T14:57:42;-11650.84;;;-142.29;88.95
7748;BME280;3918;42.564;23.164;2023-04-08T15:00:10;-11650.84;;;-142.29;87.66
7748;BME280;3918;42.564;23.164;2023-04-08T15:02:38;-11650.84;;;-142.29;88.95
7748;BME280;3918;42.564;23.164;2023-04-08T15:05:05;-11650.84;;;-142.29;83.79
7748;BME280;3918;42.564;23.164;2023-04-08T15:07:32;-11650.84;;;-142.29;84.70
7748;BME280;3918;42.564;23.164;2023-04-08T15:10:00;-11650.84;;;-142.29;85.81
7748;BME280;3918;42.564;23.164;2023-04-08T15:12:26;-11650.84;;;-142.29;88.96
7748;BME280;3918;42.564;23.164;2023-04-08T15:14:53;-11650.84;;;-142.29;89.85
7748;BME280;3918;42.564;23.164;2023-04-08T15:17:20;-11650.84;;;-142.29;91.58
7748;BME280;3918;42.564;23.164;2023-04-08T15:19:48;-11650.84;;;-142.29;98.39
7748;BME280;3918;42.564;23.164;2023-04-08T15:22:15;-11650.84;;;-142.29;97.75
7748;BME280;3918;42.564;23.164;2023-04-08T15:24:42;-11650.84;;;-142.29;100.00
7748;BME280;3918;42.564;23.164;2023-04-08T15:27:08;-11650.84;;;-142.29;100.00
7748;BME280;3918;42.564;23.164;2023-04-08T15:29:35;-11650.84;;;-142.29;100.00
7748;BME280;3918;42.564;23.164;2023-04-08T15:32:02;-11650.84;;;-142.29;100.00
7748;BME280;3918;42.564;23.164;2023-04-08T15:34:29;-11650.84;;;-142.29;100.00
7748;BME280;3918;42.564;23.164;2023-04-08T15:36:57;-11650.84;;;-142.29;100.00
7748;BME280;3918;42.564;23.164;2023-04-08T15:39:26;-11650.84;;;-142.29;100.00
7748;BME280;3918;42.564;23.164;2023-04-08T15:41:53;-11650.84;;;-142.29;100.00
7748;BME280;3918;42.564;23.164;2023-04-08T15:44:20;-11650.84;;;-142.29;100.00
7748;BME280;3918;42.564;23.164;2023-04-08T15:46:47;-11650.84;;;-142.29;100.00
7748;BME280;3918;42.564;23.164;2023-04-08T15:49:14;-11650.84;;;-142.29;100.00
7748;BME280;3918;42.564;23.164;2023-04-08T15:51:41;-11650.84;;;-142.29;100.00
7748;BME280;3918;42.564;23.164;2023-04-08T15:54:10;-11650.84;;;-142.29;100.00
7748;BME280;3918;42.564;23.164;2023-04-08T15:56:37;-11650.84;;;-142.29;100.00
7748;BME280;3918;42.564;23.164;2023-04-08T15:59:03;-11650.84;;;-142.29;100.00
7748;BME280;3918;42.564;23.164;2023-04-08T16:01:30;-11650.84;;;-142.29;100.00
7748;BME280;3918;42.564;23.164;2023-04-08T16:03:57;-11650.84;;;-142.29;100.00
7748;BME280;3918;42.564;23.164;2023-04-08T16:06:24;-11650.84;;;-142.29;100.00
7748;BME280;3918;42.564;23.164;2023-04-08T16:08:51;-11650.84;;;-142.29;100.00
7748;BME280;3918;42.564;23.164;2023-04-08T16:11:19;-11650.84;;;-142.29;100.00
7748;BME280;3918;42.564;23.164;2023-04-08T16:13:46;-11650.84;;;-142.29;100.00
7748;BME280;3918;42.564;23.164;2023-04-08T16:16:13;-11650.84;;;-142.29;100.00
7748;BME280;3918;42.564;23.164;2023-04-08T16:18:40;-11650.84;;;-142.29;100.00
7748;BME280;3918;42.564;23.164;2023-04-08T16:21:08;-11650.84;;;-142.29;100.00
7748;BME280;3918;42.564;23.164;2023-04-08T16:23:35;-11650.84;;;-142.29;100.00
7748;BME280;3918;42.564;23.164;2023-04-08T16:26:02;-11650.84;;;-142.29;100.00
7748;BME280;3918;42.564;23.164;2023-04-08T16:28:31;-11650.84;;;-142.29;100.00
7748;BME280;3918;42.564;23.164;2023-04-08T16:30:58;-11650.84;;;-142.29;100.00
7748;BME280;3918;42.564;23.164;2023-04-08T16:33:24;-11650.84;;;-142.29;100.00
7748;BME280;3918;42.564;23.164;2023-04-08T16:35:54;-11650.84;;;-142.29;100.00
7748;BME280;3918;42.564;23.164;2023-04-08T16:38:21;-11650.84;;;-142.29;100.00
7748;BME280;3918;42.564;23.164;2023-04-08T16:40:48;-11650.84;;;-142.29;100.00
7748;BME280;3918;42.564;23.164;2023-04-08T16:43:15;-11650.84;;;-142.29;100.00